createdAt,value
2023-02-25T00:00:06.303Z,3
2023-02-25T00:01:06.405Z,3.5
2023-02-25T00:02:08.789Z,3
2023-02-25T00:03:06.461Z,3.5
2023-02-25T00:04:05.941Z,3
2023-02-25T00:05:05.746Z,3.5
2023-02-25T00:06:06.678Z,3.5
2023-02-25T00:07:06.597Z,3.5
2023-02-25T00:08:06.151Z,3.5
2023-02-25T00:09:05.649Z,3.5
2023-02-25T00:10:06.652Z,3.5
2023-02-25T00:11:06.275Z,3.5
2023-02-25T00:12:06.096Z,3.5
2023-02-25T00:13:21.289Z,3
2023-02-25T00:14:06.338Z,3.5
2023-02-25T00:15:06.238Z,3.5
2023-02-25T00:16:06.068Z,3.5
2023-02-25T00:17:05.807Z,3.5
2023-02-25T00:18:06.766Z,3.5
2023-02-25T00:19:06.645Z,3.5
2023-02-25T00:20:06.325Z,3.5
2023-02-25T00:21:06.668Z,3.5
2023-02-25T00:22:06.310Z,3.5
2023-02-25T00:23:06.351Z,3.5
2023-02-25T00:24:19.718Z,3.5
2023-02-25T00:25:06.109Z,3.5
2023-02-25T00:26:06.328Z,3.5
2023-02-25T00:27:06.224Z,3.5
2023-02-25T00:28:06.000Z,3.4
2023-02-25T00:29:05.826Z,3.4
2023-02-25T00:30:06.492Z,3.4
2023-02-25T00:31:07.066Z,3.5
2023-02-25T00:32:07.313Z,3.4
2023-02-25T00:33:06.342Z,3.5
2023-02-25T00:34:06.367Z,3.5
2023-02-25T00:35:06.188Z,3.4
2023-02-25T00:36:05.775Z,3.4
2023-02-25T00:37:06.797Z,3.4
2023-02-25T00:38:19.442Z,3.4
2023-02-25T00:39:06.257Z,3.4
2023-02-25T00:40:06.053Z,3.4
2023-02-25T00:41:05.923Z,3.4
2023-02-25T00:42:05.774Z,3.4
2023-02-25T00:43:06.363Z,3.4
2023-02-25T00:44:06.263Z,3.4
2023-02-25T00:45:06.037Z,3.4
2023-02-25T00:46:05.975Z,3.4
2023-02-25T00:47:06.580Z,3.4
2023-02-25T00:48:06.041Z,3.4
2023-02-25T00:49:06.000Z,3
2023-02-25T00:50:05.892Z,3
2023-02-25T00:51:05.699Z,3.4
2023-02-25T00:52:06.760Z,3.4
2023-02-25T00:53:06.576Z,3.4
2023-02-25T00:54:06.284Z,3.4
2023-02-25T00:55:05.954Z,3.4
2023-02-25T00:56:06.032Z,3
2023-02-25T00:57:05.810Z,3.4
2023-02-25T00:58:06.709Z,3.4
2023-02-25T00:59:06.360Z,3.4
2023-02-25T01:00:06.353Z,3.4
2023-02-25T01:01:06.531Z,3.4
2023-02-25T01:02:06.288Z,3.4
2023-02-25T01:03:06.029Z,3.4
2023-02-25T01:04:05.958Z,3.4
2023-02-25T01:05:06.636Z,3
2023-02-25T01:06:05.928Z,3.4
2023-02-25T01:07:07.992Z,3.4
2023-02-25T01:08:06.362Z,3.4
2023-02-25T01:09:06.367Z,3.4
2023-02-25T01:10:06.106Z,3.4
2023-02-25T01:11:06.097Z,3.4
2023-02-25T01:12:06.177Z,3.3
2023-02-25T01:13:06.023Z,3.3
2023-02-25T01:14:06.031Z,3.3
2023-02-25T01:15:06.803Z,3.3
2023-02-25T01:16:06.308Z,3.3
2023-02-25T01:17:05.810Z,3.3
2023-02-25T01:18:06.563Z,3.3
2023-02-25T01:19:06.473Z,3.3
2023-02-25T01:20:06.185Z,3.3
2023-02-25T01:21:06.569Z,3.3
2023-02-25T01:22:06.211Z,3.3
2023-02-25T01:23:06.083Z,3.3
2023-02-25T01:24:05.826Z,3
2023-02-25T01:25:05.751Z,3.3
2023-02-25T01:26:06.058Z,3.3
2023-02-25T01:27:05.902Z,3.3
2023-02-25T01:28:06.312Z,3.3
2023-02-25T01:29:06.296Z,3.3
2023-02-25T01:30:06.057Z,3.3
2023-02-25T01:31:06.757Z,3.3
2023-02-25T01:32:07.095Z,3.3
2023-02-25T01:33:06.335Z,3.2
2023-02-25T01:34:05.757Z,3.3
2023-02-25T01:35:06.744Z,3.3
2023-02-25T01:36:05.700Z,3.3
2023-02-25T01:37:06.464Z,3.3
2023-02-25T01:38:06.086Z,3.3
2023-02-25T01:39:05.868Z,3.2
2023-02-25T01:40:05.964Z,3.2
2023-02-25T01:41:06.293Z,3.3
2023-02-25T01:42:06.313Z,3.3
2023-02-25T01:43:06.028Z,3.2
2023-02-25T01:44:05.634Z,3.2
2023-02-25T01:45:06.606Z,3.2
2023-02-25T01:46:05.998Z,3.2
2023-02-25T01:47:06.939Z,3
2023-02-25T01:48:06.485Z,3.2
2023-02-25T01:49:06.699Z,3.2
2023-02-25T01:50:06.011Z,3.2
2023-02-25T01:51:06.115Z,3.2
2023-02-25T01:52:05.980Z,3.2
2023-02-25T01:53:06.526Z,3.2
2023-02-25T01:54:06.438Z,3.2
2023-02-25T01:55:06.205Z,3
2023-02-25T01:56:06.088Z,3.2
2023-02-25T01:57:05.826Z,3.2
2023-02-25T01:58:06.596Z,3.2
2023-02-25T01:59:06.386Z,3.2
2023-02-25T02:00:06.277Z,3
2023-02-25T02:01:06.669Z,3.2
2023-02-25T02:02:06.584Z,3.2
2023-02-25T02:03:05.857Z,3.2
2023-02-25T02:04:06.699Z,3.2
2023-02-25T02:05:06.607Z,3
2023-02-25T02:06:05.683Z,3.2
2023-02-25T02:07:05.748Z,3.2
2023-02-25T02:08:06.483Z,3.1
2023-02-25T02:09:06.068Z,3.1
2023-02-25T02:10:06.013Z,3
2023-02-25T02:11:05.934Z,3.1
2023-02-25T02:12:05.575Z,3
2023-02-25T02:13:06.583Z,3.1
2023-02-25T02:14:06.018Z,3.1
2023-02-25T02:15:06.036Z,3.1
2023-02-25T02:16:06.333Z,3.1
2023-02-25T02:17:06.059Z,3.1
2023-02-25T02:18:05.908Z,3.1
2023-02-25T02:19:06.708Z,3.1
2023-02-25T02:20:06.407Z,3.1
2023-02-25T02:21:06.463Z,3.1
2023-02-25T02:22:06.159Z,3.1
2023-02-25T02:23:06.152Z,3
2023-02-25T02:24:05.855Z,3.1
2023-02-25T02:25:06.547Z,3
2023-02-25T02:26:06.570Z,3.1
2023-02-25T02:27:06.439Z,3.1
2023-02-25T02:28:06.254Z,3.1
2023-02-25T02:29:06.116Z,3.1
2023-02-25T02:30:06.064Z,3
2023-02-25T02:31:06.929Z,3
2023-02-25T02:32:06.974Z,3
2023-02-25T02:33:06.236Z,3
2023-02-25T02:34:06.130Z,3
2023-02-25T02:35:05.845Z,3
2023-02-25T02:36:06.396Z,3
2023-02-25T02:37:06.171Z,3
2023-02-25T02:38:05.936Z,3
2023-02-25T02:39:05.769Z,3
2023-02-25T02:40:06.668Z,3
2023-02-25T02:41:06.102Z,3
2023-02-25T02:42:05.827Z,3
2023-02-25T02:43:06.444Z,3
2023-02-25T02:44:06.225Z,3
2023-02-25T02:45:06.040Z,3
2023-02-25T02:46:06.372Z,3
2023-02-25T02:47:06.113Z,3
2023-02-25T02:48:05.754Z,3
2023-02-25T02:49:06.679Z,3
2023-02-25T02:50:06.394Z,3
2023-02-25T02:51:06.467Z,3
2023-02-25T02:52:06.177Z,3
2023-02-25T02:53:06.173Z,3
2023-02-25T02:54:05.984Z,3
2023-02-25T02:55:05.707Z,3
2023-02-25T02:56:05.564Z,3
2023-02-25T02:57:06.791Z,3
2023-02-25T02:58:06.426Z,3
2023-02-25T02:59:06.456Z,3
2023-02-25T03:00:05.974Z,3
2023-02-25T03:01:06.762Z,3
2023-02-25T03:02:06.386Z,3
2023-02-25T03:03:05.927Z,3
2023-02-25T03:04:06.243Z,3
2023-02-25T03:05:05.700Z,3
2023-02-25T03:06:05.995Z,3
2023-02-25T03:07:06.875Z,3
2023-02-25T03:08:06.304Z,3
2023-02-25T03:09:06.047Z,3
2023-02-25T03:10:05.934Z,3
2023-02-25T03:11:05.714Z,3
2023-02-25T03:12:06.623Z,3
2023-02-25T03:13:06.194Z,2.9
2023-02-25T03:14:06.046Z,3
2023-02-25T03:15:06.130Z,3
2023-02-25T03:16:06.109Z,2.9
2023-02-25T03:17:06.015Z,3
2023-02-25T03:18:06.512Z,2.9
2023-02-25T03:19:06.370Z,2.9
2023-02-25T03:20:06.284Z,3
2023-02-25T03:21:06.809Z,2.9
2023-02-25T03:22:06.510Z,2.9
2023-02-25T03:23:06.381Z,2.9
2023-02-25T03:24:06.139Z,2.9
2023-02-25T03:25:05.953Z,2.9
2023-02-25T03:26:06.167Z,2.9
2023-02-25T03:27:06.107Z,2.9
2023-02-25T03:28:05.907Z,2.9
2023-02-25T03:29:06.515Z,3
2023-02-25T03:30:06.465Z,2.9
2023-02-25T03:31:06.250Z,2.9
2023-02-25T03:32:06.293Z,2.9
2023-02-25T03:33:06.789Z,2.9
2023-02-25T03:34:06.379Z,2.9
2023-02-25T03:35:06.535Z,2.8
2023-02-25T03:36:06.118Z,2.9
2023-02-25T03:37:06.047Z,2.9
2023-02-25T03:38:05.986Z,2.8
2023-02-25T03:39:06.654Z,2.9
2023-02-25T03:40:06.490Z,2.9
2023-02-25T03:41:06.716Z,2.9
2023-02-25T03:42:06.531Z,2.9
2023-02-25T03:43:08.254Z,2.8
2023-02-25T03:44:06.004Z,2.9
2023-02-25T03:45:06.075Z,2.9
2023-02-25T03:46:06.236Z,2.8
2023-02-25T03:47:06.799Z,3
2023-02-25T03:48:06.388Z,2.8
2023-02-25T03:49:06.304Z,2.9
2023-02-25T03:50:05.994Z,2.9
2023-02-25T03:51:06.175Z,2.9
2023-02-25T03:52:06.119Z,2.9
2023-02-25T03:53:05.823Z,2.9
2023-02-25T03:54:05.692Z,2.9
2023-02-25T03:55:06.798Z,2.9
2023-02-25T03:56:05.889Z,2.9
2023-02-25T03:57:06.731Z,2.9
2023-02-25T03:58:06.516Z,2.9
2023-02-25T03:59:06.340Z,2.9
2023-02-25T04:00:06.231Z,2.9
2023-02-25T04:01:06.378Z,2.9
2023-02-25T04:02:06.225Z,2.9
2023-02-25T04:03:05.768Z,2.9
2023-02-25T04:04:06.340Z,2.9
2023-02-25T04:05:06.512Z,2.8
2023-02-25T04:06:06.579Z,2.8
2023-02-25T04:07:06.427Z,2.8
2023-02-25T04:08:06.114Z,2
2023-02-25T04:09:05.894Z,2.7
2023-02-25T04:10:05.858Z,2.7
2023-02-25T04:11:06.044Z,2
2023-02-25T04:12:05.852Z,2.6
2023-02-25T04:13:06.687Z,2.5
2023-02-25T04:14:06.621Z,2.5
2023-02-25T04:15:06.189Z,2.4
2023-02-25T04:16:06.499Z,2.4
2023-02-25T04:17:06.134Z,2.4
2023-02-25T04:18:05.625Z,2.3
2023-02-25T04:19:06.553Z,2.3
2023-02-25T04:20:06.166Z,2.3
2023-02-25T04:21:05.637Z,2.3
2023-02-25T04:22:06.586Z,2.2
2023-02-25T04:23:06.353Z,2.2
2023-02-25T04:24:05.976Z,2.2
2023-02-25T04:25:05.764Z,2.2
2023-02-25T04:26:06.099Z,1
2023-02-25T04:27:06.630Z,2.2
2023-02-25T04:28:06.382Z,2.2
2023-02-25T04:29:06.794Z,1
2023-02-25T04:30:06.277Z,2.2
2023-02-25T04:31:06.820Z,2.2
2023-02-25T04:32:06.513Z,2.2
2023-02-25T04:33:05.653Z,2.2
2023-02-25T04:34:06.657Z,2.2
2023-02-25T04:35:06.480Z,2.2
2023-02-25T04:36:05.710Z,2.2
2023-02-25T04:37:05.749Z,2.3
2023-02-25T04:38:09.007Z,2.3
2023-02-25T04:39:06.273Z,2.3
2023-02-25T04:40:06.123Z,2.3
2023-02-25T04:41:06.551Z,2.2
2023-02-25T04:42:06.277Z,2.2
2023-02-25T04:43:05.982Z,2.2
2023-02-25T04:44:06.013Z,2.2
2023-02-25T04:45:06.817Z,2.1
2023-02-25T04:46:06.204Z,2.1
2023-02-25T04:47:06.162Z,2.1
2023-02-25T04:48:05.891Z,2.1
2023-02-25T04:49:05.942Z,2.1
2023-02-25T04:50:06.689Z,2.1
2023-02-25T04:51:05.788Z,2.1
2023-02-25T04:52:06.657Z,2.1
2023-02-25T04:53:06.580Z,2
2023-02-25T04:54:06.195Z,2.1
2023-02-25T04:55:05.888Z,2.1
2023-02-25T04:56:06.130Z,2.1
2023-02-25T04:57:05.873Z,2.1
2023-02-25T04:58:06.687Z,2.1
2023-02-25T04:59:06.534Z,2.1
2023-02-25T05:00:06.434Z,2.1
2023-02-25T05:01:06.630Z,2.1
2023-02-25T05:02:05.080Z,2.1
2023-02-25T05:03:06.552Z,2.1
2023-02-25T05:04:06.341Z,2.1
2023-02-25T05:05:06.400Z,2.1
2023-02-25T05:06:06.676Z,2.1
2023-02-25T05:07:06.184Z,2
2023-02-25T05:08:06.116Z,2.1
2023-02-25T05:09:08.240Z,2.1
2023-02-25T05:10:06.708Z,2.1
2023-02-25T05:11:05.683Z,2.1
2023-02-25T05:12:06.678Z,2.1
2023-02-25T05:13:06.176Z,2.1
2023-02-25T05:14:06.304Z,2.1
2023-02-25T05:15:06.329Z,2.1
2023-02-25T05:16:05.960Z,2.1
2023-02-25T05:17:06.572Z,2.1
2023-02-25T05:18:06.600Z,2.1
2023-02-25T05:19:06.316Z,2.1
2023-02-25T05:20:06.398Z,2.1
2023-02-25T05:21:06.517Z,2.1
2023-02-25T05:22:06.102Z,2.1
2023-02-25T05:23:06.151Z,2.1
2023-02-25T05:24:05.990Z,2.1
2023-02-25T05:25:06.757Z,2.1
2023-02-25T05:26:05.923Z,2.1
2023-02-25T05:27:06.561Z,2.1
2023-02-25T05:28:08.580Z,2.1
2023-02-25T05:29:05.964Z,2
2023-02-25T05:30:06.354Z,2
2023-02-25T05:31:06.372Z,2
2023-02-25T05:32:06.497Z,2
2023-02-25T05:33:06.978Z,2
2023-02-25T05:34:06.305Z,2
2023-02-25T05:35:06.245Z,2
2023-02-25T05:36:06.277Z,2
2023-02-25T05:37:05.987Z,2
2023-02-25T05:38:05.895Z,2
2023-02-25T05:39:06.739Z,2
2023-02-25T05:40:06.559Z,2
2023-02-25T05:41:05.776Z,2
2023-02-25T05:42:06.532Z,2
2023-02-25T05:43:06.564Z,2
2023-02-25T05:44:06.274Z,2
2023-02-25T05:45:05.887Z,2
2023-02-25T05:46:06.589Z,2
2023-02-25T05:47:06.516Z,2
2023-02-25T05:48:05.937Z,2
2023-02-25T05:49:05.772Z,2
2023-02-25T05:50:06.894Z,2
2023-02-25T05:51:06.139Z,2
2023-02-25T05:52:05.758Z,2
2023-02-25T05:53:06.642Z,2
2023-02-25T05:54:06.469Z,2
2023-02-25T05:55:06.037Z,2
2023-02-25T05:56:06.408Z,2
2023-02-25T05:57:06.143Z,2
2023-02-25T05:58:05.855Z,2
2023-02-25T05:59:05.553Z,2
2023-02-25T06:00:06.277Z,2
2023-02-25T06:01:05.708Z,2
2023-02-25T06:02:06.696Z,2
2023-02-25T06:03:06.458Z,2
2023-02-25T06:04:05.891Z,2
2023-02-25T06:05:06.483Z,2
2023-02-25T06:06:06.135Z,2
2023-02-25T06:07:05.845Z,2
2023-02-25T06:08:06.698Z,2
2023-02-25T06:09:06.447Z,2
2023-02-25T06:10:05.978Z,2
2023-02-25T06:11:06.510Z,2
2023-02-25T06:12:06.281Z,2
2023-02-25T06:13:06.008Z,2
2023-02-25T06:14:05.842Z,2
2023-02-25T06:15:05.730Z,2
2023-02-25T06:16:06.102Z,2
2023-02-25T06:17:06.856Z,2
2023-02-25T06:18:06.568Z,2
2023-02-25T06:19:06.152Z,2
2023-02-25T06:20:06.196Z,2
2023-02-25T06:21:06.104Z,2
2023-02-25T06:22:06.163Z,2
2023-02-25T06:23:05.949Z,2
2023-02-25T06:24:09.719Z,2
2023-02-25T06:25:06.493Z,2
2023-02-25T06:26:06.824Z,2
2023-02-25T06:27:06.301Z,2
2023-02-25T06:28:06.107Z,2
2023-02-25T06:29:05.955Z,2
2023-02-25T06:30:05.763Z,2
2023-02-25T06:31:06.137Z,2
2023-02-25T06:32:06.429Z,2
2023-02-25T06:33:06.530Z,2
2023-02-25T06:34:06.203Z,2
2023-02-25T06:35:06.125Z,2
2023-02-25T06:36:06.334Z,1.9
2023-02-25T06:37:06.093Z,2
2023-02-25T06:38:06.013Z,1.9
2023-02-25T06:39:06.626Z,1.9
2023-02-25T06:40:06.484Z,1.9
2023-02-25T06:41:05.727Z,1.8
2023-02-25T06:42:06.658Z,1.8
2023-02-25T06:43:06.247Z,1.8
2023-02-25T06:44:06.206Z,1.8
2023-02-25T06:45:05.965Z,1.8
2023-02-25T06:46:06.634Z,1.8
2023-02-25T06:47:06.370Z,1.9
2023-02-25T06:48:06.046Z,1.9
2023-02-25T06:49:05.798Z,1.9
2023-02-25T06:50:07.092Z,1.9
2023-02-25T06:51:05.773Z,1.9
2023-02-25T06:52:05.702Z,1.9
2023-02-25T06:53:06.556Z,1.9
2023-02-25T06:54:06.496Z,1.9
2023-02-25T06:55:06.274Z,2
2023-02-25T06:56:06.352Z,1.9
2023-02-25T06:57:05.995Z,1.9
2023-02-25T06:58:05.940Z,2
2023-02-25T06:59:05.657Z,2
2023-02-25T07:00:06.622Z,1.9
2023-02-25T07:01:05.960Z,2
2023-02-25T07:02:06.690Z,2
2023-02-25T07:03:06.231Z,2
2023-02-25T07:04:06.310Z,2
2023-02-25T07:05:06.054Z,2
2023-02-25T07:06:06.229Z,2.1
2023-02-25T07:07:06.112Z,2.1
2023-02-25T07:08:05.762Z,2.2
2023-02-25T07:09:06.438Z,2.3
2023-02-25T07:10:06.323Z,2.3
2023-02-25T07:11:05.991Z,2.4
2023-02-25T07:12:06.790Z,2.4
2023-02-25T07:13:06.407Z,2.4
2023-02-25T07:14:06.187Z,2.4
2023-02-25T07:15:06.161Z,2.5
2023-02-25T07:16:07.213Z,2.5
2023-02-25T07:17:05.847Z,2.6
2023-02-25T07:18:06.681Z,2.6
2023-02-25T07:19:06.657Z,2.7
2023-02-25T07:20:06.397Z,2.7
2023-02-25T07:21:06.674Z,2.8
2023-02-25T07:22:06.328Z,2.8
2023-02-25T07:23:06.214Z,2.8
2023-02-25T07:24:05.888Z,2.8
2023-02-25T07:25:06.819Z,2.8
2023-02-25T07:26:05.781Z,2.9
2023-02-25T07:27:06.728Z,3
2023-02-25T07:28:06.237Z,3
2023-02-25T07:29:06.006Z,3
2023-02-25T07:30:05.725Z,3
2023-02-25T07:31:06.416Z,3
2023-02-25T07:32:06.501Z,3.1
2023-02-25T07:33:08.266Z,3
2023-02-25T07:34:06.381Z,3
2023-02-25T07:35:06.327Z,3.1
2023-02-25T07:36:06.306Z,3
2023-02-25T07:37:06.196Z,3
2023-02-25T07:38:05.711Z,3
2023-02-25T07:39:06.722Z,3
2023-02-25T07:40:06.479Z,3
2023-02-25T07:41:05.946Z,3
2023-02-25T07:42:05.718Z,3
2023-02-25T07:43:06.472Z,3
2023-02-25T07:44:06.428Z,3
2023-02-25T07:45:06.517Z,3
2023-02-25T07:46:06.956Z,3
2023-02-25T07:47:06.534Z,3
2023-02-25T07:48:06.282Z,3
2023-02-25T07:49:05.774Z,3
2023-02-25T07:50:05.727Z,3
2023-02-25T07:51:06.029Z,3.1
2023-02-25T07:52:05.913Z,3.1
2023-02-25T07:53:06.332Z,3.2
2023-02-25T07:54:06.258Z,3.1
2023-02-25T07:55:06.139Z,3.2
2023-02-25T07:56:06.328Z,3.2
2023-02-25T07:57:06.057Z,3.2
2023-02-25T07:58:08.974Z,3.2
2023-02-25T07:59:06.615Z,3.2
2023-02-25T08:00:06.264Z,3.2
2023-02-25T08:01:06.178Z,3.2
2023-02-25T08:02:05.701Z,3.2
2023-02-25T08:03:06.690Z,3.3
2023-02-25T08:04:06.673Z,3.2
2023-02-25T08:05:05.878Z,3.3
2023-02-25T08:06:05.794Z,3.3
2023-02-25T08:07:06.615Z,3
2023-02-25T08:08:06.475Z,3.4
2023-02-25T08:09:06.212Z,3
2023-02-25T08:10:05.761Z,3.4
2023-02-25T08:11:05.609Z,3.4
2023-02-25T08:12:06.708Z,3.4
2023-02-25T08:13:06.502Z,3.5
2023-02-25T08:14:06.203Z,3.5
2023-02-25T08:15:05.970Z,3.5
2023-02-25T08:16:06.359Z,3.5
2023-02-25T08:17:06.022Z,3.5
2023-02-25T08:18:05.710Z,3
2023-02-25T08:19:06.585Z,3.5
2023-02-25T08:20:06.386Z,3.5
2023-02-25T08:21:07.341Z,3.5
2023-02-25T08:22:06.057Z,3.5
2023-02-25T08:23:06.227Z,3.5
2023-02-25T08:24:05.828Z,3.5
2023-02-25T08:25:06.640Z,3.6
2023-02-25T08:26:06.360Z,3.5
2023-02-25T08:27:06.199Z,3
2023-02-25T08:28:05.980Z,3
2023-02-25T08:29:06.581Z,3.6
2023-02-25T08:30:06.562Z,3.6
2023-02-25T08:31:06.329Z,3.6
2023-02-25T08:32:06.855Z,3.6
2023-02-25T08:33:06.739Z,3.6
2023-02-25T08:34:06.429Z,3.6
2023-02-25T08:35:06.287Z,3.6
2023-02-25T08:36:06.472Z,3.6
2023-02-25T08:37:06.047Z,3.6
2023-02-25T08:38:05.859Z,3.6
2023-02-25T08:39:06.655Z,3.6
2023-02-25T08:40:06.426Z,3.6
2023-02-25T08:41:06.507Z,3.6
2023-02-25T08:42:06.387Z,3.6
2023-02-25T08:43:06.005Z,3.6
2023-02-25T08:44:05.825Z,3.6
2023-02-25T08:45:06.572Z,3.6
2023-02-25T08:46:06.751Z,3.6
2023-02-25T08:47:06.496Z,3.6
2023-02-25T08:48:06.066Z,3.6
2023-02-25T08:49:05.781Z,3.6
2023-02-25T08:50:06.861Z,3.5
2023-02-25T08:51:06.870Z,3.5
2023-02-25T08:52:06.568Z,3.5
2023-02-25T08:53:06.358Z,3.4
2023-02-25T08:54:06.177Z,3.5
2023-02-25T08:55:05.883Z,3.5
2023-02-25T08:56:05.685Z,3.7
2023-02-25T08:57:06.459Z,3.8
2023-02-25T08:58:06.107Z,4
2023-02-25T08:59:06.315Z,4
2023-02-25T09:00:07.941Z,4.3
2023-02-25T09:01:06.239Z,4.4
2023-02-25T09:02:06.335Z,4.5
2023-02-25T09:03:05.743Z,4.7
2023-02-25T09:04:06.790Z,4.8
2023-02-25T09:05:06.547Z,4.9
2023-02-25T09:06:06.427Z,5
2023-02-25T09:07:06.054Z,5.1
2023-02-25T09:08:05.785Z,5.2
2023-02-25T09:09:06.735Z,5.2
2023-02-25T09:10:06.504Z,4
2023-02-25T09:11:06.261Z,4
2023-02-25T09:12:05.762Z,5.6
2023-02-25T09:13:05.663Z,5.6
2023-02-25T09:14:06.680Z,5.7
2023-02-25T09:15:06.583Z,5.7
2023-02-25T09:16:05.843Z,4
2023-02-25T09:17:06.450Z,5.9
2023-02-25T09:18:06.119Z,6
2023-02-25T09:19:05.669Z,6
2023-02-25T09:20:06.544Z,6.1
2023-02-25T09:21:05.736Z,6.2
2023-02-25T09:22:06.384Z,6.2
2023-02-25T09:23:06.398Z,6.2
2023-02-25T09:24:06.071Z,6.2
2023-02-25T09:25:05.886Z,6.3
2023-02-25T09:26:06.399Z,6.4
2023-02-25T09:27:06.216Z,6.5
2023-02-25T09:28:05.781Z,6.5
2023-02-25T09:29:05.630Z,6.6
2023-02-25T09:30:06.778Z,6.6
2023-02-25T09:31:06.676Z,6.6
2023-02-25T09:32:06.461Z,6.5
2023-02-25T09:33:06.678Z,6.5
2023-02-25T09:34:05.768Z,6.4
2023-02-25T09:35:06.606Z,4
2023-02-25T09:36:05.804Z,6.4
2023-02-25T09:37:05.485Z,6.4
2023-02-25T09:38:06.452Z,4
2023-02-25T09:39:06.226Z,6.5
2023-02-25T09:40:06.032Z,6.5
2023-02-25T09:41:06.210Z,6.5
2023-02-25T09:42:06.671Z,4
2023-02-25T09:43:06.185Z,4
2023-02-25T09:44:06.127Z,6.6
2023-02-25T09:45:06.041Z,6.6
2023-02-25T09:46:06.469Z,6.7
2023-02-25T09:47:06.117Z,6.8
2023-02-25T09:48:06.066Z,6.8
2023-02-25T09:49:06.410Z,6.8
2023-02-25T09:50:06.186Z,6.8
2023-02-25T09:51:06.301Z,6.8
2023-02-25T09:52:06.099Z,6.7
2023-02-25T09:53:05.843Z,6.6
2023-02-25T09:54:10.135Z,6.5
2023-02-25T09:55:06.303Z,6.5
2023-02-25T09:56:06.012Z,6.6
2023-02-25T09:57:06.560Z,6.8
2023-02-25T09:58:05.637Z,7
2023-02-25T09:59:05.882Z,5
2023-02-25T10:00:05.734Z,7
2023-02-25T10:01:06.181Z,7.1
2023-02-25T10:02:06.203Z,7.2
2023-02-25T10:03:06.196Z,7.3
2023-02-25T10:04:06.548Z,7.4
2023-02-25T10:05:06.570Z,7.4
2023-02-25T10:06:06.587Z,7.4
2023-02-25T10:07:06.128Z,7.4
2023-02-25T10:08:05.947Z,7.4
2023-02-25T10:09:05.705Z,7.3
2023-02-25T10:10:06.464Z,7.2
2023-02-25T10:11:06.586Z,7.1
2023-02-25T10:12:06.581Z,7
2023-02-25T10:13:06.287Z,4
2023-02-25T10:14:06.175Z,6.8
2023-02-25T10:15:05.951Z,6.8
2023-02-25T10:16:06.080Z,6.7
2023-02-25T10:17:06.003Z,6.7
2023-02-25T10:18:06.684Z,6.5
2023-02-25T10:19:06.387Z,6.4
2023-02-25T10:20:05.981Z,6.3
2023-02-25T10:21:05.848Z,4
2023-02-25T10:22:06.372Z,6.1
2023-02-25T10:23:06.282Z,6
2023-02-25T10:24:05.946Z,5.8
2023-02-25T10:25:05.971Z,5.9
2023-02-25T10:26:06.703Z,6
2023-02-25T10:27:06.422Z,6
2023-02-25T10:28:06.268Z,6.2
2023-02-25T10:29:06.142Z,6.2
2023-02-25T10:30:05.739Z,6.2
2023-02-25T10:31:06.739Z,6.3
2023-02-25T10:32:06.561Z,6.2
2023-02-25T10:33:05.839Z,6.1
2023-02-25T10:34:08.086Z,6
2023-02-25T10:35:06.444Z,6.1
2023-02-25T10:36:05.868Z,5
2023-02-25T10:37:06.734Z,5
2023-02-25T10:38:06.607Z,4
2023-02-25T10:39:06.292Z,6.2
2023-02-25T10:40:08.682Z,6.2
2023-02-25T10:41:06.634Z,6.3
2023-02-25T10:42:06.269Z,6.2
2023-02-25T10:43:06.189Z,6.1
2023-02-25T10:44:06.107Z,6.1
2023-02-25T10:45:06.005Z,6
2023-02-25T10:46:06.539Z,6
2023-02-25T10:47:06.098Z,6.1
2023-02-25T10:48:05.733Z,6.1
2023-02-25T10:49:11.369Z,6
2023-02-25T10:50:06.415Z,6
2023-02-25T10:51:05.874Z,5.9
2023-02-25T10:52:05.845Z,5.9
2023-02-25T10:53:06.603Z,5.9
2023-02-25T10:54:06.421Z,5.9
2023-02-25T10:55:06.116Z,5.9
2023-02-25T10:56:06.439Z,4
2023-02-25T10:57:06.231Z,6
2023-02-25T10:58:05.841Z,5
2023-02-25T10:59:05.668Z,6.2
2023-02-25T11:00:06.582Z,6.1
2023-02-25T11:01:06.436Z,5
2023-02-25T11:02:06.034Z,6
2023-02-25T11:03:06.764Z,6
2023-02-25T11:04:06.396Z,5.9
2023-02-25T11:05:06.092Z,5.9
2023-02-25T11:06:06.018Z,5.8
2023-02-25T11:07:05.645Z,5.8
2023-02-25T11:08:06.661Z,5.7
2023-02-25T11:09:06.502Z,5.7
2023-02-25T11:10:06.283Z,5.6
2023-02-25T11:11:06.238Z,5.6
2023-02-25T11:12:06.337Z,5.7
2023-02-25T11:13:05.900Z,5.7
2023-02-25T11:14:05.715Z,5.6
2023-02-25T11:15:06.515Z,5.6
2023-02-25T11:16:05.739Z,5.6
2023-02-25T11:17:09.347Z,5.6
2023-02-25T11:18:05.884Z,5.6
2023-02-25T11:19:05.823Z,5.6
2023-02-25T11:20:06.416Z,5.6
2023-02-25T11:21:06.490Z,5.6
2023-02-25T11:22:06.341Z,5.6
2023-02-25T11:23:06.090Z,5.6
2023-02-25T11:24:05.872Z,4
2023-02-25T11:25:06.828Z,4
2023-02-25T11:26:06.014Z,5.6
2023-02-25T11:27:06.581Z,5.5
2023-02-25T11:28:06.246Z,5.6
2023-02-25T11:29:06.145Z,5.5
2023-02-25T11:30:05.722Z,5.6
2023-02-25T11:31:06.752Z,5.5
2023-02-25T11:32:06.902Z,5.4
2023-02-25T11:33:05.529Z,5.4
2023-02-25T11:34:06.794Z,5.4
2023-02-25T11:35:06.514Z,5.3
2023-02-25T11:36:06.461Z,5.2
2023-02-25T11:37:07.757Z,5.2
2023-02-25T11:38:06.059Z,5.2
2023-02-25T11:39:06.111Z,5.2
2023-02-25T11:40:05.704Z,5.1
2023-02-25T11:41:05.843Z,5.1
2023-02-25T11:42:06.587Z,5
2023-02-25T11:43:06.491Z,5
2023-02-25T11:44:07.424Z,4.9
2023-02-25T11:45:05.952Z,4.9
2023-02-25T11:46:06.318Z,4.9
2023-02-25T11:47:06.082Z,4.8
2023-02-25T11:48:06.747Z,4.9
2023-02-25T11:49:06.483Z,4.9
2023-02-25T11:50:06.448Z,4.9
2023-02-25T11:51:06.301Z,4.9
2023-02-25T11:52:06.331Z,4
2023-02-25T11:53:06.080Z,5
2023-02-25T11:54:05.889Z,5.1
2023-02-25T11:55:08.696Z,5.2
2023-02-25T11:56:06.032Z,5.4
2023-02-25T11:57:05.953Z,5.5
2023-02-25T11:58:06.592Z,5
2023-02-25T11:59:06.262Z,5
2023-02-25T12:00:06.138Z,5.9
2023-02-25T12:01:06.536Z,6
2023-02-25T12:02:06.326Z,6
2023-02-25T12:03:06.111Z,6
2023-02-25T12:04:05.944Z,5
2023-02-25T12:05:05.785Z,6
2023-02-25T12:06:06.022Z,6
2023-02-25T12:07:05.906Z,5.9
2023-02-25T12:08:17.921Z,5
2023-02-25T12:09:06.551Z,5.9
2023-02-25T12:10:06.225Z,5.9
2023-02-25T12:11:06.190Z,6
2023-02-25T12:12:05.995Z,6
2023-02-25T12:13:05.651Z,6
2023-02-25T12:14:06.448Z,6.1
2023-02-25T12:15:06.230Z,6.2
2023-02-25T12:16:06.380Z,6.2
2023-02-25T12:17:06.166Z,6.3
2023-02-25T12:18:07.105Z,6.3
2023-02-25T12:19:08.126Z,6.4
2023-02-25T12:20:06.532Z,6.4
2023-02-25T12:21:05.923Z,6.4
2023-02-25T12:22:06.749Z,6.4
2023-02-25T12:23:06.599Z,5
2023-02-25T12:24:06.377Z,6.4
2023-02-25T12:25:05.878Z,6.4
2023-02-25T12:26:06.197Z,6.4
2023-02-25T12:27:06.122Z,6.4
2023-02-25T12:28:05.575Z,6.4
2023-02-25T12:29:06.561Z,6.4
2023-02-25T12:30:05.922Z,6.4
2023-02-25T12:31:06.330Z,6.4
2023-02-25T12:32:06.460Z,6.5
2023-02-25T12:33:06.674Z,6.6
2023-02-25T12:34:06.407Z,6.8
2023-02-25T12:35:06.167Z,7
2023-02-25T12:36:06.498Z,7.2
2023-02-25T12:37:06.071Z,7.4
2023-02-25T12:38:05.842Z,7.6
2023-02-25T12:39:06.594Z,7.7
2023-02-25T12:40:06.427Z,7.8
2023-02-25T12:41:06.562Z,8
2023-02-25T12:42:06.490Z,8.1
2023-02-25T12:43:06.318Z,8.2
2023-02-25T12:44:06.102Z,8.3
2023-02-25T12:45:05.986Z,8.4
2023-02-25T12:46:06.446Z,8.4
2023-02-25T12:47:05.877Z,6
2023-02-25T12:48:05.907Z,8.5
2023-02-25T12:49:06.615Z,8.5
2023-02-25T12:50:06.366Z,8.6
2023-02-25T12:51:06.525Z,8.6
2023-02-25T12:52:06.477Z,8.6
2023-02-25T12:53:06.182Z,8.6
2023-02-25T12:54:05.966Z,8.5
2023-02-25T12:55:06.742Z,8.5
2023-02-25T12:56:05.666Z,8.5
2023-02-25T12:57:06.719Z,8.5
2023-02-25T12:58:06.429Z,8.5
2023-02-25T12:59:06.224Z,8.4
2023-02-25T13:00:06.051Z,8.4
2023-02-25T13:01:06.286Z,8.4
2023-02-25T13:02:05.779Z,8.4
2023-02-25T13:03:06.711Z,8.2
2023-02-25T13:04:06.692Z,8.1
2023-02-25T13:05:06.023Z,8
2023-02-25T13:06:06.583Z,8
2023-02-25T13:07:06.186Z,7.9
2023-02-25T13:08:05.819Z,7.9
2023-02-25T13:09:06.694Z,7.8
2023-02-25T13:10:06.817Z,7.8
2023-02-25T13:11:06.624Z,7.7
2023-02-25T13:12:15.901Z,7.6
2023-02-25T13:13:06.282Z,7.6
2023-02-25T13:14:06.095Z,7.5
2023-02-25T13:15:05.716Z,7.4
2023-02-25T13:16:06.375Z,7.3
2023-02-25T13:17:06.205Z,7.2
2023-02-25T13:18:05.905Z,7.1
2023-02-25T13:19:06.681Z,5
2023-02-25T13:20:06.637Z,7.1
2023-02-25T13:21:05.850Z,7
2023-02-25T13:22:06.608Z,6.9
2023-02-25T13:23:06.507Z,6.8
2023-02-25T13:24:06.261Z,6.8
2023-02-25T13:25:05.963Z,6.7
2023-02-25T13:26:05.875Z,6.6
2023-02-25T13:27:06.594Z,6.6
2023-02-25T13:28:06.307Z,6.5
2023-02-25T13:29:06.255Z,6.5
2023-02-25T13:30:05.867Z,6.4
2023-02-25T13:31:06.577Z,6.4
2023-02-25T13:32:06.580Z,6.3
2023-02-25T13:33:06.069Z,6.3
2023-02-25T13:34:05.968Z,6.2
2023-02-25T13:35:06.578Z,6.2
2023-02-25T13:36:05.981Z,6.2
2023-02-25T13:37:06.728Z,6.1
2023-02-25T13:38:06.382Z,6
2023-02-25T13:39:06.020Z,6
2023-02-25T13:40:06.072Z,6
2023-02-25T13:41:06.328Z,5.9
2023-02-25T13:42:06.075Z,5.9
2023-02-25T13:43:05.765Z,5.8
2023-02-25T13:44:06.735Z,5.8
2023-02-25T13:45:06.466Z,4
2023-02-25T13:46:06.407Z,4
2023-02-25T13:47:06.247Z,5.8
2023-02-25T13:48:05.988Z,5.7
2023-02-25T13:49:05.758Z,5.8
2023-02-25T13:50:06.807Z,5.8
2023-02-25T13:51:05.858Z,5.7
2023-02-25T13:52:06.605Z,5.7
2023-02-25T13:53:06.378Z,5
2023-02-25T13:54:06.211Z,5.7
2023-02-25T13:55:05.957Z,5.7
2023-02-25T13:56:06.670Z,5.7
2023-02-25T13:57:06.160Z,5.6
2023-02-25T13:58:06.051Z,5.6
2023-02-25T13:59:05.949Z,5.7
2023-02-25T14:00:06.694Z,5.8
2023-02-25T14:01:05.902Z,5.8
2023-02-25T14:02:06.940Z,5.9